Time;durP1;ratioP1;P1;durP2;ratioP2;P2;SDS_P1;SDS_P2;PMS_P1;PMS_P2;Temp;Humidity;BMP_temperature;BMP_pressure;BME280_temperature;BME280_humidity;BME280_pressure;Samples;Min_cycle;Max_cycle;Signal;HPM_P1;HPM_P2
2022/02/26 00:00:13;;;;;;;47.33;19.67;;;;;;;4.22;61.00;99408.91;1671146;84;21092;-90
2022/02/26 00:02:42;;;;;;;40.55;16.48;;;;;;;4.23;60.32;99411.04;1728679;81;21102;-89
2022/02/26 00:05:10;;;;;;;42.10;16.70;;;;;;;4.24;59.96;99416.20;1711459;80;21141;-87
2022/02/26 00:07:37;;;;;;;40.05;17.60;;;;;;;4.23;60.79;99413.62;1675457;79;21106;-89
2022/02/26 00:10:06;;;;;;;43.40;17.45;;;;;;;4.25;60.69;99419.20;1690446;82;21148;-88
2022/02/26 00:12:34;;;;;;;37.80;17.00;;;;;;;4.23;62.32;99422.63;1693741;82;21191;-90
2022/02/26 00:15:00;;;;;;;35.05;15.13;;;;;;;4.25;62.58;99422.20;1711886;83;21070;-91
2022/02/26 00:17:27;;;;;;;43.40;17.67;;;;;;;4.25;60.57;99418.34;1720498;82;21047;-90
2022/02/26 00:19:53;;;;;;;43.25;17.57;;;;;;;4.25;61.55;99423.48;1723256;83;21015;-91
2022/02/26 00:22:20;;;;;;;48.78;18.90;;;;;;;4.24;60.17;99420.47;1724823;83;21059;-91
2022/02/26 00:24:47;;;;;;;55.03;20.37;;;;;;;4.20;59.75;99417.05;1724050;82;21040;-91
2022/02/26 00:27:14;;;;;;;51.28;20.43;;;;;;;4.14;60.07;99426.87;1723941;80;21236;-91
2022/02/26 00:29:41;;;;;;;52.38;21.73;;;;;;;4.10;60.23;99428.10;1728494;81;21023;-89
2022/02/26 00:32:08;;;;;;;46.28;20.23;;;;;;;4.03;60.81;99426.36;1732473;83;21070;-89
2022/02/26 00:34:35;;;;;;;52.00;18.95;;;;;;;3.98;60.00;99427.20;1733327;83;21071;-89
2022/02/26 00:39:50;;;;;;;44.65;19.12;;;;;;;3.91;60.57;99437.42;1702600;82;21118;-85
2022/02/26 00:42:17;;;;;;;44.13;17.27;;;;;;;3.89;62.22;99445.13;1734029;83;21073;-86
2022/02/26 00:44:43;;;;;;;46.30;18.57;;;;;;;3.89;63.80;99441.27;1730537;83;21517;-87
2022/02/26 00:47:10;;;;;;;39.90;16.77;;;;;;;3.94;63.25;99437.46;1713900;82;21099;-86
2022/02/26 00:52:47;;;;;;;46.28;19.20;;;;;;;3.99;63.38;99435.33;1647531;84;21183;-88
2022/02/26 00:55:14;;;;;;;50.88;18.57;;;;;;;4.04;63.08;99438.36;1709394;84;21039;-86
2022/02/26 00:57:40;;;;;;;47.83;18.67;;;;;;;4.10;63.48;99440.97;1659521;82;21052;-88
2022/02/26 01:00:11;;;;;;;48.42;18.02;;;;;;;4.10;62.19;99444.42;1693866;84;21144;-90
2022/02/26 01:02:38;;;;;;;37.45;16.80;;;;;;;4.06;62.42;99434.97;1680679;83;21067;-87
2022/02/26 01:05:05;;;;;;;39.55;16.80;;;;;;;4.05;61.64;99433.66;1682704;85;21019;-88
2022/02/26 01:07:32;;;;;;;39.60;17.23;;;;;;;4.00;62.48;99432.36;1696470;84;21051;-88
2022/02/26 01:09:59;;;;;;;43.28;18.52;;;;;;;4.00;63.02;99434.92;1677750;85;21064;-88
2022/02/26 01:12:25;;;;;;;44.50;17.75;;;;;;;3.98;61.61;99438.77;1677218;84;21056;-88
2022/02/26 01:14:52;;;;;;;44.75;18.95;;;;;;;3.95;62.78;99438.73;1696033;84;21039;-87
2022/02/26 01:17:19;;;;;;;44.88;19.07;;;;;;;3.92;62.15;99440.41;1674514;84;21020;-87
2022/02/26 01:25:12;;;;;;;39.38;18.02;;;;;;;3.78;63.31;99437.34;1823620;77;23050;-88
2022/02/26 01:27:39;;;;;;;44.65;18.35;;;;;;;3.68;64.92;99435.55;1775823;80;21008;-89
2022/02/26 01:30:08;;;;;;;39.55;17.95;;;;;;;3.67;63.56;99440.67;1696186;79;21119;-90
2022/02/26 01:32:35;;;;;;;39.65;16.70;;;;;;;3.65;64.48;99442.38;1722981;81;21120;-89
2022/02/26 01:35:03;;;;;;;43.45;16.52;;;;;;;3.65;63.36;99447.08;1709418;82;21049;-87
2022/02/26 01:37:30;;;;;;;37.63;16.85;;;;;;;3.62;64.36;99443.21;1709670;81;21053;-89
2022/02/26 01:39:57;;;;;;;44.08;19.12;;;;;;;3.61;64.65;99444.48;1728407;82;21500;-89
2022/02/26 01:42:24;;;;;;;42.08;15.15;;;;;;;3.59;65.14;99448.31;1737726;82;21088;-89
2022/02/26 01:44:53;;;;;;;41.02;17.12;;;;;;;3.56;64.85;99442.73;1679883;81;21092;-88
2022/02/26 01:47:20;;;;;;;41.45;17.40;;;;;;;3.56;65.84;99444.42;1655279;81;21164;-88
2022/02/26 01:49:48;;;;;;;46.20;19.27;;;;;;;3.55;64.64;99442.71;1662926;81;21643;-85
2022/02/26 01:52:21;;;;;;;46.77;18.30;;;;;;;3.53;64.66;99449.12;1671003;85;21057;-87
2022/02/26 01:54:48;;;;;;;38.53;16.15;;;;;;;3.49;66.24;99442.66;1707137;81;21142;-88
2022/02/26 01:57:15;;;;;;;40.23;17.85;;;;;;;3.46;65.39;99442.22;1696064;84;21000;-86
2022/02/26 01:59:42;;;;;;;44.83;18.20;;;;;;;3.41;63.99;99437.44;1682115;85;20989;-90
2022/02/26 02:02:08;;;;;;;43.00;16.27;;;;;;;3.36;65.37;99441.27;1661612;86;21032;-89
2022/02/26 02:04:35;;;;;;;46.00;16.87;;;;;;;3.34;65.14;99439.51;1663982;86;20972;-87
2022/02/26 02:29:08;;;;;;;35.92;14.70;;;;;;;3.10;66.57;99455.53;1747599;80;21110;-85
2022/02/26 02:31:35;;;;;;;41.73;16.10;;;;;;;3.11;66.57;99465.84;1765416;81;22070;-87
2022/02/26 02:34:02;;;;;;;43.20;16.32;;;;;;;3.11;66.79;99471.41;1780547;80;21062;-89
2022/02/26 02:36:29;;;;;;;39.42;14.95;;;;;;;3.08;66.58;99464.94;1746405;78;21098;-88
2022/02/26 02:38:56;;;;;;;37.28;14.63;;;;;;;3.03;64.48;99469.18;1715678;83;21073;-86
2022/02/26 02:41:23;;;;;;;32.08;13.90;;;;;;;2.94;64.65;99469.92;1734745;81;21108;-87
2022/02/26 03:02:24;;;;;;;26.15;11.57;;;;;;;2.58;67.79;99484.02;1748986;79;22339;31
2022/02/26 03:14:41;;;;;;;35.88;14.98;;;;;;;2.55;67.25;99494.27;1724322;80;21121;31
2022/02/26 03:26:37;;;;;;;37.20;12.37;;;;;;;2.39;66.60;99503.45;1747751;80;22419;-80
2022/02/26 04:03:33;;;;;;;28.32;11.97;;;;;;;2.48;68.15;99552.75;1690855;82;21151;-86
2022/02/26 04:27:27;;;;;;;35.92;14.40;;;;;;;2.65;68.34;99576.98;1724680;80;22468;-77
2022/02/26 04:29:54;;;;;;;35.13;12.47;;;;;;;2.65;69.70;99577.41;1688784;81;21184;-85
2022/02/26 04:41:45;;;;;;;32.90;14.87;;;;;;;2.60;69.45;99576.03;1720426;79;21123;31
2022/02/26 04:50:20;;;;;;;40.20;14.03;;;;;;;2.68;70.22;99579.56;1727509;79;21261;31
2022/02/26 04:58:53;;;;;;;33.63;15.48;;;;;;;2.77;70.36;99594.27;1688157;81;22351;-83
2022/02/26 05:01:19;;;;;;;41.63;14.95;;;;;;;2.81;69.85;99595.17;1715156;79;21710;-86
2022/02/26 05:03:46;;;;;;;38.83;15.80;;;;;;;2.75;69.92;99583.11;1713437;83;21019;-87
2022/02/26 05:06:13;;;;;;;35.20;16.27;;;;;;;2.85;69.30;99598.23;1723834;83;21514;-88
2022/02/26 05:08:39;;;;;;;32.15;14.40;;;;;;;2.81;69.93;99601.16;1723833;81;21031;-87
2022/02/26 05:11:06;;;;;;;34.03;16.23;;;;;;;2.82;68.77;99604.16;1688461;83;21444;-85
2022/02/26 05:13:33;;;;;;;43.45;18.40;;;;;;;2.81;69.97;99606.73;1696871;80;21247;-84
2022/02/26 05:15:59;;;;;;;38.92;16.90;;;;;;;2.82;70.71;99613.58;1720584;80;21067;-87
2022/02/26 05:18:27;;;;;;;39.20;16.65;;;;;;;2.82;69.25;99614.44;1706667;83;21114;-87
2022/02/26 05:20:53;;;;;;;36.38;17.55;;;;;;;2.79;70.11;99624.67;1726477;80;21170;-85
2022/02/26 05:23:20;;;;;;;38.50;16.75;;;;;;;2.75;70.99;99628.05;1707303;81;21170;-83
2022/02/26 05:35:15;;;;;;;36.77;16.25;;;;;;;2.82;69.67;99643.97;1709016;81;21122;-87
2022/02/26 05:37:42;;;;;;;34.92;13.48;;;;;;;2.85;67.94;99644.45;1670798;85;21040;-88
2022/02/26 05:40:10;;;;;;;38.28;15.15;;;;;;;2.84;69.13;99651.70;1652589;85;21037;-89
2022/02/26 05:42:36;;;;;;;38.95;16.60;;;;;;;2.87;69.56;99653.05;1687595;83;21602;-88
2022/02/26 05:47:55;;;;;;;37.60;14.93;;;;;;;2.81;70.56;99646.53;1721004;79;22491;31
2022/02/26 05:50:22;;;;;;;34.30;15.15;;;;;;;2.86;69.13;99655.16;1767974;80;21035;-88
2022/02/26 05:52:48;;;;;;;36.23;15.58;;;;;;;2.92;68.97;99653.53;1764131;81;21537;-87
2022/02/26 05:55:15;;;;;;;230.87;74.42;;;;;;;2.96;70.12;99651.88;1763953;81;21085;-88
2022/02/26 05:57:42;;;;;;;360.52;111.42;;;;;;;3.01;69.76;99647.67;1774562;81;20992;-89
2022/02/26 06:00:10;;;;;;;221.90;80.32;;;;;;;3.06;70.02;99650.30;1778152;80;21033;-84
2022/02/26 06:02:37;;;;;;;146.13;53.80;;;;;;;3.11;69.77;99643.53;1772440;80;21041;-89
2022/02/26 06:05:04;;;;;;;143.10;51.00;;;;;;;3.16;70.38;99656.01;1768327;80;21047;-89
2022/02/26 06:07:31;;;;;;;46.92;19.25;;;;;;;3.21;70.16;99650.52;1762210;79;20967;-91
2022/02/26 06:09:58;;;;;;;42.03;18.42;;;;;;;3.28;69.69;99649.77;1749635;80;20996;-89
2022/02/26 06:12:24;;;;;;;53.00;20.35;;;;;;;3.31;68.16;99653.66;1745110;81;21057;-89
2022/02/26 06:14:51;;;;;;;37.73;16.57;;;;;;;3.33;69.55;99649.39;1753198;81;21049;-88
2022/02/26 06:17:18;;;;;;;33.33;16.23;;;;;;;3.41;68.76;99650.78;1752136;80;21036;-89
2022/02/26 06:19:45;;;;;;;90.83;25.50;;;;;;;3.47;68.29;99653.86;1746212;81;20968;-89
2022/02/26 06:22:12;;;;;;;75.05;22.48;;;;;;;3.52;67.57;99647.05;1743574;79;21620;-90
2022/02/26 06:24:38;;;;;;;66.25;21.50;;;;;;;3.56;67.27;99650.09;1746226;82;21012;-90
2022/02/26 06:27:05;;;;;;;49.30;18.27;;;;;;;3.57;67.64;99655.69;1708539;84;21016;-89
2022/02/26 06:29:32;;;;;;;54.40;19.90;;;;;;;3.58;67.69;99668.58;1741351;82;21550;-90
2022/02/26 06:31:58;;;;;;;55.03;19.87;;;;;;;3.61;67.18;99666.88;1742564;81;21009;-89
2022/02/26 06:34:27;;;;;;;52.65;19.50;;;;;;;3.62;67.91;99671.16;1733364;82;21010;-89
2022/02/26 06:36:53;;;;;;;47.30;18.32;;;;;;;3.71;68.14;99676.43;1753504;79;21039;-87
2022/02/26 06:39:20;;;;;;;38.55;16.05;;;;;;;3.83;67.15;99679.56;1768999;79;21514;-90
2022/02/26 06:41:46;;;;;;;34.98;16.10;;;;;;;3.86;67.65;99683.05;1771862;80;21031;-90
2022/02/26 06:44:13;;;;;;;33.28;15.55;;;;;;;3.75;66.95;99648.61;1778382;80;21011;-89
2022/02/26 06:46:41;;;;;;;32.20;13.45;;;;;;;3.95;66.59;99677.12;1755140;80;20998;-90
2022/02/26 06:49:08;;;;;;;32.88;14.58;;;;;;;4.00;66.43;99687.06;1691702;79;21083;-90
2022/02/26 06:51:35;;;;;;;31.62;14.85;;;;;;;4.02;66.48;99695.66;1655147;80;21533;-91
2022/02/26 06:54:02;;;;;;;31.00;14.07;;;;;;;4.02;66.26;99699.52;1649336;86;20980;-90
2022/02/26 06:56:29;;;;;;;35.45;15.50;;;;;;;4.03;66.53;99694.80;1724523;80;21574;-88
2022/02/26 06:58:56;;;;;;;34.18;14.50;;;;;;;4.07;66.78;99694.41;1725410;82;21035;-89
2022/02/26 07:01:23;;;;;;;38.10;15.10;;;;;;;4.11;66.19;99695.73;1721072;83;21035;-90
2022/02/26 07:03:49;;;;;;;33.05;15.78;;;;;;;4.18;65.76;99698.83;1724345;83;21059;-89
2022/02/26 07:06:16;;;;;;;35.25;14.50;;;;;;;4.23;65.62;99707.02;1703984;83;21517;-88
2022/02/26 07:08:43;;;;;;;33.45;14.68;;;;;;;4.26;66.33;99701.48;1721531;83;21002;-89
2022/02/26 07:11:09;;;;;;;29.45;13.90;;;;;;;4.33;66.00;99707.11;1725269;83;21075;-91
2022/02/26 07:13:36;;;;;;;34.85;14.78;;;;;;;4.45;65.29;99708.09;1723541;83;21099;-90
2022/02/26 07:16:03;;;;;;;33.42;14.23;;;;;;;4.47;65.05;99714.11;1720836;83;21203;-90
2022/02/26 07:18:30;;;;;;;37.28;15.13;;;;;;;4.47;65.41;99714.97;1723245;83;21090;-91
2022/02/26 07:20:56;;;;;;;36.23;15.85;;;;;;;4.53;65.27;99724.03;1723477;83;21008;-90
2022/02/26 07:23:23;;;;;;;37.13;15.30;;;;;;;4.59;65.70;99724.52;1722479;83;21029;-89
2022/02/26 07:25:50;;;;;;;30.37;13.85;;;;;;;4.68;65.93;99725.91;1723479;83;21134;-91
2022/02/26 07:28:16;;;;;;;36.15;15.70;;;;;;;4.75;65.55;99726.81;1714422;79;21157;-90
2022/02/26 07:30:43;;;;;;;35.23;16.02;;;;;;;4.83;65.22;99725.59;1710639;84;21011;-88
2022/02/26 07:33:09;;;;;;;43.42;17.57;;;;;;;4.91;64.63;99729.94;1746946;80;21048;-88
2022/02/26 07:35:37;;;;;;;37.98;15.95;;;;;;;4.90;64.46;99735.11;1749783;82;21026;-87
2022/02/26 07:38:04;;;;;;;29.63;12.63;;;;;;;4.89;64.51;99732.94;1707582;81;21147;-91
2022/02/26 07:40:31;;;;;;;26.25;13.10;;;;;;;5.02;63.91;99744.66;1664439;81;21585;-89
2022/02/26 07:42:58;;;;;;;32.83;13.85;;;;;;;5.02;63.81;99747.23;1634000;88;21072;-90
2022/02/26 07:45:25;;;;;;;28.15;13.13;;;;;;;5.07;63.86;99743.81;1672664;85;21025;-90
2022/02/26 07:47:51;;;;;;;31.97;14.05;;;;;;;5.15;63.87;99750.31;1663067;86;21537;-90
2022/02/26 07:50:18;;;;;;;28.10;13.58;;;;;;;5.21;63.32;99748.21;1635582;86;21052;-89
2022/02/26 07:52:45;;;;;;;22.07;11.53;;;;;;;5.25;63.46;99750.84;1713624;82;21128;-90
2022/02/26 07:55:12;;;;;;;25.65;11.70;;;;;;;5.33;62.62;99749.17;1787053;80;21555;-90
2022/02/26 07:57:39;;;;;;;26.07;12.53;;;;;;;5.42;62.74;99752.23;1784310;79;20992;-90
2022/02/26 08:00:08;;;;;;;29.12;11.73;;;;;;;5.41;61.93;99753.50;1770475;80;21007;-90
2022/02/26 08:02:35;;;;;;;28.47;12.68;;;;;;;5.42;62.27;99762.55;1786005;78;21096;-89
2022/02/26 08:05:01;;;;;;;28.85;13.20;;;;;;;5.47;61.98;99745.80;1686989;79;21086;-91
2022/02/26 08:07:28;;;;;;;30.43;13.55;;;;;;;5.51;61.94;99751.41;1673745;83;21028;-90
2022/02/26 08:09:54;;;;;;;28.55;13.40;;;;;;;5.55;61.85;99749.28;1677115;85;21050;-90
2022/02/26 08:12:21;;;;;;;26.05;12.78;;;;;;;5.56;62.00;99749.30;1677127;85;21512;-91
2022/02/26 08:14:48;;;;;;;27.73;13.03;;;;;;;5.62;62.15;99751.05;1686848;84;21023;-90
2022/02/26 08:17:15;;;;;;;28.07;12.88;;;;;;;5.63;61.63;99754.48;1680952;84;21061;-91
2022/02/26 08:19:41;;;;;;;27.82;12.95;;;;;;;5.69;61.96;99754.11;1653685;87;21079;-91
2022/02/26 08:22:07;;;;;;;31.25;12.80;;;;;;;5.68;61.44;99751.52;1694337;84;21071;-89
2022/02/26 08:24:35;;;;;;;32.15;12.80;;;;;;;5.72;61.63;99757.13;1682241;84;20986;-90
2022/02/26 08:27:04;;;;;;;28.70;12.37;;;;;;;5.78;61.60;99763.61;1750022;81;21051;-90
2022/02/26 08:29:31;;;;;;;35.73;12.95;;;;;;;5.87;61.36;99762.78;1695132;80;21159;-91
2022/02/26 08:31:58;;;;;;;31.50;13.90;;;;;;;5.92;61.26;99767.11;1744502;80;21140;-91
2022/02/26 08:34:24;;;;;;;28.70;13.78;;;;;;;5.98;61.10;99775.34;1750914;81;20982;-89
2022/02/26 08:36:51;;;;;;;29.80;14.58;;;;;;;6.05;61.28;99773.64;1744618;81;20985;-90
2022/02/26 08:39:17;;;;;;;33.88;15.85;;;;;;;6.14;61.27;99778.85;1744149;81;21051;-91
2022/02/26 08:41:44;;;;;;;28.17;14.20;;;;;;;6.23;61.18;99772.84;1743916;81;21044;-89
2022/02/26 08:44:10;;;;;;;28.70;13.65;;;;;;;6.26;60.84;99775.02;1713153;80;21114;-90
2022/02/26 08:46:37;;;;;;;21.60;11.08;;;;;;;6.28;60.77;99768.57;1718120;82;21059;-90
2022/02/26 08:49:03;;;;;;;23.83;11.63;;;;;;;6.33;60.29;99772.05;1713515;84;20942;-91
2022/02/26 08:51:30;;;;;;;27.58;11.70;;;;;;;6.30;60.16;99772.87;1711205;84;20990;-90
2022/02/26 08:53:56;;;;;;;27.77;11.15;;;;;;;6.36;59.94;99772.89;1713961;84;21013;-91
2022/02/26 08:56:23;;;;;;;34.25;11.45;;;;;;;6.31;58.66;99775.91;1714551;84;21051;-89
2022/02/26 08:58:52;;;;;;;30.50;11.68;;;;;;;6.42;59.45;99774.63;1712779;84;21027;-90
2022/02/26 09:01:21;;;;;;;30.75;13.25;;;;;;;6.45;58.58;99773.36;1681842;80;21066;-90
2022/02/26 09:03:48;;;;;;;34.00;11.30;;;;;;;6.46;58.36;99775.52;1624519;83;21198;-90
2022/02/26 09:06:15;;;;;;;26.27;11.28;;;;;;;6.51;57.82;99775.11;1616999;88;21028;-91
2022/02/26 09:08:41;;;;;;;32.78;14.00;;;;;;;6.59;58.19;99775.98;1621746;87;21042;-90
2022/02/26 09:11:08;;;;;;;23.65;11.43;;;;;;;6.72;58.18;99774.27;1622037;87;21241;-89
2022/02/26 09:13:39;;;;;;;28.38;11.30;;;;;;;6.81;58.42;99769.55;1686662;82;21087;-90
2022/02/26 09:16:07;;;;;;;28.23;13.20;;;;;;;6.91;57.36;99773.43;1627670;81;21175;-91
2022/02/26 09:18:33;;;;;;;22.40;11.75;;;;;;;7.04;57.71;99774.28;1625773;88;21060;-89
2022/02/26 09:21:00;;;;;;;26.73;12.45;;;;;;;7.09;58.01;99769.13;1624049;88;21051;-90
2022/02/26 09:23:28;;;;;;;24.77;11.15;;;;;;;7.17;57.82;99772.13;1626782;81;21099;-91
2022/02/26 09:25:55;;;;;;;23.15;11.15;;;;;;;7.22;57.23;99766.98;1629999;81;21206;-91
2022/02/26 09:28:22;;;;;;;28.32;11.83;;;;;;;7.32;57.42;99772.98;1717354;81;21139;-90
2022/02/26 09:30:49;;;;;;;27.93;11.60;;;;;;;7.41;56.41;99776.86;1744348;82;21013;-91
2022/02/26 09:33:15;;;;;;;24.25;12.00;;;;;;;7.46;56.97;99780.72;1704081;83;21009;-91
2022/02/26 09:35:42;;;;;;;23.18;11.15;;;;;;;7.57;56.19;99782.43;1753043;80;20995;-89
2022/02/26 09:38:09;;;;;;;26.07;9.90;;;;;;;7.66;56.29;99784.16;1732974;81;21032;-92
2022/02/26 09:40:36;;;;;;;22.25;10.43;;;;;;;7.81;56.92;99784.98;1739754;81;20999;-92
2022/02/26 09:43:06;;;;;;;21.90;9.93;;;;;;;7.84;56.07;99788.84;1741619;80;21562;-90
2022/02/26 09:45:36;;;;;;;18.12;9.48;;;;;;;7.90;55.42;99788.84;1697222;80;21110;-90
2022/02/26 09:48:03;;;;;;;21.17;10.48;;;;;;;8.05;55.25;99786.63;1697896;84;21495;-91
2022/02/26 09:50:30;;;;;;;23.83;11.53;;;;;;;8.15;56.05;99795.63;1696462;84;21059;-91
2022/02/26 09:52:58;;;;;;;30.15;12.28;;;;;;;8.35;55.24;99792.09;1692524;84;21059;-90
2022/02/26 09:55:25;;;;;;;27.13;11.70;;;;;;;8.49;55.98;99794.20;1650878;81;21132;-90
2022/02/26 09:57:51;;;;;;;25.57;11.25;;;;;;;8.56;54.29;99797.65;1648143;87;21095;-89
2022/02/26 10:00:18;;;;;;;18.77;9.05;;;;;;;8.68;52.84;99801.91;1656500;87;21552;-90
2022/02/26 10:02:48;;;;;;;24.92;10.30;;;;;;;8.78;52.87;99797.52;1622601;87;21043;-90
2022/02/26 10:05:18;;;;;;;20.48;10.20;;;;;;;8.75;53.20;99804.86;1678759;82;21119;-89
2022/02/26 10:07:46;;;;;;;24.80;10.85;;;;;;;8.80;50.48;99800.52;1757020;79;21111;-88
2022/02/26 10:10:23;;;;;;;21.40;10.45;;;;;;;8.90;52.45;99807.80;1733713;79;21079;-91
2022/02/26 10:12:58;;;;;;;25.60;10.75;;;;;;;8.88;50.84;99810.40;1708566;81;21081;-88
2022/02/26 10:15:30;;;;;;;19.95;8.50;;;;;;;8.88;49.55;99813.00;1729958;80;21581;-91
2022/02/26 10:18:02;;;;;;;23.30;8.63;;;;;;;8.98;48.79;99812.94;1675770;81;21112;-90
2022/02/26 10:20:30;;;;;;;20.15;8.23;;;;;;;9.11;50.92;99810.66;1645121;81;21107;-90
2022/02/26 10:22:58;;;;;;;22.40;9.00;;;;;;;9.12;49.19;99802.87;1665891;83;21075;-88
2022/02/26 10:25:28;;;;;;;17.02;8.00;;;;;;;9.14;49.81;99816.69;1688010;82;21105;-89
2022/02/26 10:27:58;;;;;;;22.13;9.40;;;;;;;9.20;48.99;99811.89;1673921;79;21132;-91
2022/02/26 10:30:36;;;;;;;20.43;9.15;;;;;;;9.32;50.46;99810.94;1676301;81;21140;-92
2022/02/26 10:33:17;;;;;;;18.20;7.62;;;;;;;9.31;49.33;99811.38;1724013;81;21238;-87
2022/02/26 10:35:56;;;;;;;22.90;9.58;;;;;;;9.31;48.59;99804.01;1691134;80;21588;-89
2022/02/26 10:38:27;;;;;;;20.43;8.90;;;;;;;9.32;49.20;99809.20;1685422;85;21054;-88
2022/02/26 10:41:11;;;;;;;19.52;8.83;;;;;;;9.27;49.91;99810.98;1686315;84;21046;-88
2022/02/26 10:43:48;;;;;;;20.57;9.95;;;;;;;9.33;49.04;99811.34;1686180;80;21118;-88
2022/02/26 10:46:28;;;;;;;24.02;10.58;;;;;;;9.27;49.66;99812.28;1686191;84;21053;-88
2022/02/26 10:49:05;;;;;;;23.83;11.05;;;;;;;9.40;49.58;99805.69;1690999;80;20981;-88
2022/02/26 10:51:35;;;;;;;30.17;12.40;;;;;;;9.39;48.86;99812.62;1708056;81;21004;-88
2022/02/26 10:54:09;;;;;;;23.60;10.58;;;;;;;9.53;49.64;99807.30;1594944;81;21087;-92
2022/02/26 10:56:42;;;;;;;20.10;10.53;;;;;;;9.56;49.81;99802.92;1610858;86;21636;-92
2022/02/26 10:59:12;;;;;;;27.87;10.35;;;;;;;9.54;48.36;99802.07;1680958;82;21151;-92
2022/02/26 11:01:45;;;;;;;22.10;9.18;;;;;;;9.61;49.44;99807.20;1711714;82;21205;-92
2022/02/26 11:04:17;;;;;;;23.95;10.45;;;;;;;9.59;47.94;99803.76;1594196;84;21182;-90
2022/02/26 11:06:44;;;;;;;17.70;7.92;;;;;;;9.63;47.93;99806.75;1670067;83;21105;-92
2022/02/26 11:09:12;;;;;;;25.25;8.75;;;;;;;9.73;48.18;99805.36;1642819;81;21087;-91
2022/02/26 11:11:39;;;;;;;19.00;8.23;;;;;;;9.75;48.70;99804.91;1690109;83;21240;-92
2022/02/26 11:14:07;;;;;;;19.62;8.70;;;;;;;9.84;49.15;99803.94;1677193;83;21178;-92
2022/02/26 11:16:36;;;;;;;22.07;9.80;;;;;;;9.92;48.01;99799.95;1643767;83;21065;-92
2022/02/26 11:19:04;;;;;;;14.33;7.97;;;;;;;10.08;48.71;99806.69;1691520;81;21080;-92
2022/02/26 11:21:31;;;;;;;19.20;8.58;;;;;;;10.12;47.49;99807.08;1700469;81;21068;-92
2022/02/26 11:23:59;;;;;;;19.57;9.20;;;;;;;10.13;47.92;99799.72;1692826;83;21212;-87
2022/02/26 11:26:27;;;;;;;23.18;9.20;;;;;;;10.15;47.79;99808.35;1692855;85;21098;-87
2022/02/26 11:28:59;;;;;;;17.60;9.33;;;;;;;10.23;48.16;99804.81;1697383;81;21155;-86
2022/02/26 11:31:50;;;;;;;21.20;9.70;;;;;;;10.24;47.22;99800.88;1718014;82;21049;-88
2022/02/26 11:34:26;;;;;;;15.58;8.43;;;;;;;10.20;47.48;99803.09;1717511;84;21054;-88
2022/02/26 11:37:04;;;;;;;19.07;9.30;;;;;;;10.19;47.77;99803.13;1717786;83;20978;-86
2022/02/26 11:39:40;;;;;;;16.10;8.68;;;;;;;10.14;47.76;99800.12;1717655;84;21051;-88
2022/02/26 11:42:26;;;;;;;20.17;9.88;;;;;;;10.15;47.60;99803.16;1717784;82;21099;-86
2022/02/26 11:45:12;;;;;;;22.60;10.43;;;;;;;10.05;48.12;99797.66;1717498;82;21043;-87
2022/02/26 11:48:02;;;;;;;30.35;13.45;;;;;;;9.86;48.41;99800.88;1683102;83;20999;-90
2022/02/26 11:50:41;;;;;;;21.23;10.13;;;;;;;10.03;48.43;99803.31;1641948;83;21060;-86
2022/02/26 11:53:17;;;;;;;39.70;17.65;;;;;;;10.28;48.35;99805.59;1665542;85;21049;-89
2022/02/26 11:56:05;;;;;;;23.67;11.88;;;;;;;10.30;47.04;99801.27;1653921;86;21031;-88
2022/02/26 11:58:37;;;;;;;40.73;18.23;;;;;;;10.39;48.10;99792.06;1684643;82;21060;-89
2022/02/26 12:01:17;;;;;;;22.98;9.50;;;;;;;10.15;48.24;99766.78;1702588;82;21056;-89
2022/02/26 12:03:50;;;;;;;21.75;9.88;;;;;;;10.30;46.93;99794.77;1660648;82;21176;-89
2022/02/26 12:06:33;;;;;;;22.25;9.98;;;;;;;10.23;48.19;99791.82;1651356;83;21119;-91
2022/02/26 12:09:07;;;;;;;;;;;;;;;10.13;48.06;99797.56;1682371;84;21688;-92
2022/02/26 12:11:39;;;;;;;19.50;9.68;;;;;;;9.85;48.57;99785.34;1634172;85;20153;-91
2022/02/26 12:14:25;;;;;;;30.55;13.53;;;;;;;9.62;49.21;99794.21;1616070;84;21178;-91
2022/02/26 12:17:08;;;;;;;35.40;16.00;;;;;;;9.52;49.29;99796.03;1611511;85;21131;-86
2022/02/26 12:19:46;;;;;;;40.03;15.63;;;;;;;9.24;50.01;99798.02;1614402;88;21092;-87
2022/02/26 12:22:14;;;;;;;27.73;13.10;;;;;;;9.05;50.38;99788.66;1614611;83;21116;-87
2022/02/26 12:24:56;;;;;;;37.42;17.48;;;;;;;8.78;51.40;99789.30;1614614;85;21124;-89
2022/02/26 12:27:42;;;;;;;46.58;20.10;;;;;;;8.64;51.70;99788.09;1656997;85;21181;-89
2022/02/26 12:30:15;;;;;;;74.62;29.80;;;;;;;8.56;52.23;99791.17;1676347;80;21682;-91
2022/02/26 12:33:03;;;;;;;28.77;13.40;;;;;;;8.49;52.16;99786.88;1686898;83;21570;-90
2022/02/26 12:35:37;;;;;;;54.55;23.83;;;;;;;8.47;52.07;99784.28;1632880;88;21039;-90
2022/02/26 12:38:28;;;;;;;35.23;14.20;;;;;;;8.45;52.37;99786.47;1685621;83;21179;-90
2022/02/26 12:40:58;;;;;;;44.90;19.27;;;;;;;8.32;53.01;99786.95;1641738;87;21090;-87
2022/02/26 12:43:30;;;;;;;45.40;18.95;;;;;;;8.25;53.44;99792.56;1614073;84;21102;-88
2022/02/26 12:45:57;;;;;;;25.32;13.22;;;;;;;8.21;53.42;99797.78;1702205;81;21613;-90
2022/02/26 12:48:24;;;;;;;29.23;12.47;;;;;;;8.05;54.20;99797.83;1749049;82;21091;-91
2022/02/26 12:50:51;;;;;;;34.15;14.75;;;;;;;8.04;54.14;99806.48;1735049;82;21033;-89
2022/02/26 12:53:23;;;;;;;37.48;17.20;;;;;;;7.95;54.00;99796.14;1681991;81;21143;-90
2022/02/26 12:55:49;;;;;;;36.38;16.82;;;;;;;7.86;54.39;99803.93;1690289;82;21157;-91
2022/02/26 12:58:16;;;;;;;30.10;14.98;;;;;;;7.73;55.05;99800.52;1688064;85;21360;-89
2022/02/26 13:00:44;;;;;;;32.60;14.28;;;;;;;7.64;55.56;99798.83;1692017;85;21059;-91
2022/02/26 13:03:11;;;;;;;32.38;14.45;;;;;;;7.68;55.39;99804.42;1673379;84;21110;-92
2022/02/26 13:05:40;;;;;;;26.93;13.28;;;;;;;7.61;55.52;99802.70;1691988;83;22242;-91
2022/02/26 13:08:10;;;;;;;37.08;17.45;;;;;;;7.54;56.19;99807.45;1687666;80;21088;-92
2022/02/26 13:10:40;;;;;;;29.27;15.30;;;;;;;7.53;55.93;99803.15;1674371;83;21036;-91
2022/02/26 13:13:11;;;;;;;27.25;14.10;;;;;;;7.55;56.44;99802.72;1673612;80;21539;-90
2022/02/26 13:15:41;;;;;;;31.00;14.50;;;;;;;7.55;56.78;99796.25;1742612;81;21086;-91
2022/02/26 13:18:08;;;;;;;27.07;12.68;;;;;;;7.54;56.46;99801.86;1720502;82;21587;-88
2022/02/26 13:20:37;;;;;;;27.77;14.10;;;;;;;7.57;55.96;99804.86;1694175;83;21053;-91
2022/02/26 13:23:09;;;;;;;33.28;14.13;;;;;;;7.44;56.73;99802.73;1694365;81;21167;-89
2022/02/26 13:25:39;;;;;;;29.23;14.87;;;;;;;7.42;58.00;99800.59;1682279;81;21087;-89
2022/02/26 13:28:06;;;;;;;39.53;18.35;;;;;;;7.48;56.59;99810.04;1682642;80;21083;-90
2022/02/26 13:30:33;;;;;;;36.68;17.37;;;;;;;7.48;56.89;99810.92;1645785;82;21129;-90
2022/02/26 13:33:01;;;;;;;34.33;15.50;;;;;;;7.44;57.66;99812.20;1621101;88;21075;-91
2022/02/26 13:35:31;;;;;;;28.90;13.85;;;;;;;7.45;57.43;99810.91;1640044;82;21225;-90
2022/02/26 13:38:00;;;;;;;30.95;15.48;;;;;;;7.44;57.57;99818.67;1614186;81;21663;-90
2022/02/26 13:40:28;;;;;;;27.00;13.88;;;;;;;7.36;58.72;99811.80;1660427;80;21119;-85
2022/02/26 13:43:04;;;;;;;39.73;17.92;;;;;;;7.31;58.97;99813.52;1635300;84;21091;-88
2022/02/26 13:45:33;;;;;;;44.33;19.30;;;;;;;7.32;58.56;99811.78;1692912;81;21174;-91
2022/02/26 13:48:01;;;;;;;39.15;16.32;;;;;;;7.28;58.98;99815.23;1704542;83;21061;-86
2022/02/26 13:50:28;;;;;;;52.27;22.67;;;;;;;7.25;59.09;99811.37;1680279;81;21006;-81
2022/02/26 13:52:54;;;;;;;61.05;24.35;;;;;;;7.19;60.04;99813.52;1667409;84;21031;-89
2022/02/26 13:55:23;;;;;;;39.50;17.57;;;;;;;7.19;59.60;99812.66;1664074;84;21019;-90
2022/02/26 13:57:51;;;;;;;61.68;26.33;;;;;;;7.19;59.71;99819.98;1725283;82;21087;-92
2022/02/26 14:00:24;;;;;;;44.58;19.87;;;;;;;7.15;60.67;99816.53;1669886;81;21636;-89
2022/02/26 14:03:17;;;;;;;50.38;20.30;;;;;;;7.14;59.76;99825.16;1663604;83;21075;-89
2022/02/26 14:05:48;;;;;;;30.57;14.87;;;;;;;7.06;61.07;99807.90;1724891;81;21398;-91
2022/02/26 14:08:14;;;;;;;30.82;13.80;;;;;;;7.17;60.11;99824.30;1737776;80;21053;-92
2022/02/26 14:10:42;;;;;;;28.07;13.65;;;;;;;7.02;60.01;99821.69;1729039;82;21012;-89
2022/02/26 14:15:49;;;;;;;28.23;12.95;;;;;;;6.91;61.23;99825.56;1752640;81;21077;-88
2022/02/26 14:18:24;;;;;;;27.87;12.30;;;;;;;6.88;61.06;99835.89;1735890;81;21565;-89